»·PEaware :: N701GT KFLG-KCRQ

N701GT :: KFLG-KCRQ

FLIGHT INFORMATION

Flight Status: Arrived
Operator: Privately registered:
United States
More flights under this callsign
Pilot: Anonymous 17564 (17564)
Aircraft: ECLIPSE 500
(EA50)
More flights by this aircraft type
Origin: KFLG Flagstaff Pulliam
United States
Destination: KCRQ McClellan-Palomar
United States
More flights between these airports :: More routes between these airports
Route: +FLG1 OATES DRK J96 PKE J78 TRM JLI
File this flight plan on PilotEdge
Remarks: NOAA Real World Weather
Altitude:
(Current/Filed)
26,000ft
Speed:
(Current/Filed)
370kts
Departed: 25-Jun-18 04:32 PM
Arrived: 25-Jun-18 05:39 PM
Distance/Time
Traveled:
303nm/1:07
Distance/Time
To Go:
Arrived

Flight Plot

Page will automatically refresh every two minutes.


Map Options




Map Legend


Flown Route
Filed Route
Departure Airport
Arrival Airport
Navaid (VOR, NDB)
Fix

Horizontal Profiles

Position Reports

Time Latitude Longitude Heading Altitude Ground
Speed
25-Jun-18 16:15 35.135648 -111.676865 222 7014ft 0kts
25-Jun-18 16:16 35.135648 -111.676865 222 7014ft 0kts
25-Jun-18 16:17 35.135648 -111.676865 222 7014ft 0kts
25-Jun-18 16:18 35.135648 -111.676865 222 7014ft 0kts
25-Jun-18 16:19 35.135648 -111.676865 222 7014ft 0kts
25-Jun-18 16:20 35.135648 -111.676865 222 7014ft 0kts
25-Jun-18 16:21 35.135648 -111.676865 222 7014ft 0kts
25-Jun-18 16:22 35.135648 -111.676865 222 7014ft 0kts
25-Jun-18 16:23 35.135648 -111.676865 222 7014ft 0kts
25-Jun-18 16:24 35.135648 -111.676865 222 7014ft 0kts
25-Jun-18 16:25 35.135648 -111.676865 222 7014ft 0kts
25-Jun-18 16:26 35.135715 -111.675891 43 7014ft 6kts
25-Jun-18 16:27 35.138648 -111.672789 40 7014ft 18kts
25-Jun-18 16:28 35.143221 -111.667933 42 7014ft 21kts
25-Jun-18 16:29 35.147283 -111.663593 40 7014ft 18kts
25-Jun-18 16:30 35.149874 -111.660754 52 7014ft 0kts
25-Jun-18 16:31 35.149575 -111.660013 133 7014ft 16kts
25-Jun-18 16:32 35.140518 -111.669070 219 7018ft 96kts
25-Jun-18 16:33 35.105687 -111.679592 189 8019ft 160kts
25-Jun-18 16:34 35.059267 -111.685624 189 9649ft 177kts
25-Jun-18 16:35 35.008818 -111.692289 188 11298ft 186kts
25-Jun-18 16:36 34.956557 -111.699222 187 12906ft 192kts
25-Jun-18 16:37 34.902667 -111.706034 187 14409ft 199kts
25-Jun-18 16:38 34.864399 -111.741495 256 15799ft 198kts
25-Jun-18 16:39 34.849745 -111.806838 256 17104ft 205kts
25-Jun-18 16:40 34.834990 -111.874216 256 18362ft 210kts
25-Jun-18 16:41 34.820054 -111.942913 256 19577ft 213kts
25-Jun-18 16:42 34.804876 -112.012859 257 20720ft 216kts
25-Jun-18 16:43 34.789408 -112.084114 257 21799ft 219kts
25-Jun-18 16:44 34.773835 -112.155668 256 22805ft 222kts
25-Jun-18 16:45 34.757891 -112.228646 256 23955ft 226kts
25-Jun-18 16:46 34.741707 -112.302522 256 25093ft 228kts
25-Jun-18 16:47 34.725277 -112.377289 257 26107ft 233kts
25-Jun-18 16:48 34.707025 -112.460297 256 26150ft 276kts
25-Jun-18 16:49 34.682982 -112.554738 254 26149ft 308kts
25-Jun-18 16:50 34.656010 -112.657426 253 26148ft 329kts
25-Jun-18 16:51 34.627546 -112.765231 253 26147ft 342kts
25-Jun-18 16:52 34.598054 -112.876407 253 26147ft 350kts
25-Jun-18 16:53 34.567896 -112.989604 253 26146ft 355kts
25-Jun-18 16:54 34.537374 -113.103706 253 26146ft 358kts
25-Jun-18 16:55 34.506584 -113.218304 253 26147ft 360kts
25-Jun-18 16:56 34.475468 -113.333707 252 26147ft 362kts
25-Jun-18 16:57 34.444010 -113.449798 252 25951ft 368kts
25-Jun-18 16:58 34.412541 -113.565457 252 25843ft 368kts
25-Jun-18 16:59 34.380389 -113.682719 252 25838ft 367kts
25-Jun-18 17:00 34.348393 -113.799689 252 25843ft 366kts
25-Jun-18 17:01 34.316318 -113.916175 252 25843ft 365kts
25-Jun-18 17:02 34.284207 -114.032252 252 25843ft 364kts
25-Jun-18 17:03 34.253279 -114.143599 251 25844ft 364kts
25-Jun-18 17:04 34.223857 -114.249160 251 25844ft 363kts
25-Jun-18 17:05 34.191818 -114.363642 250 25844ft 363kts
25-Jun-18 17:06 34.162144 -114.469189 250 25844ft 363kts
25-Jun-18 17:07 34.129896 -114.583463 250 25822ft 363kts
25-Jun-18 17:08 34.097696 -114.695158 249 25817ft 363kts
25-Jun-18 17:09 34.062285 -114.808498 249 25816ft 363kts
25-Jun-18 17:10 34.026680 -114.921723 249 25816ft 363kts
25-Jun-18 17:11 33.991124 -115.034297 249 25816ft 363kts
25-Jun-18 17:12 33.956323 -115.144043 248 25817ft 363kts
25-Jun-18 17:13 33.920658 -115.256104 248 25817ft 363kts
25-Jun-18 17:14 33.884437 -115.369489 248 25817ft 363kts
25-Jun-18 17:15 33.848212 -115.482471 248 25788ft 364kts
25-Jun-18 17:16 33.811886 -115.595353 248 25780ft 364kts
25-Jun-18 17:17 33.775233 -115.708828 248 25780ft 364kts
25-Jun-18 17:18 33.738542 -115.822035 248 25779ft 364kts
25-Jun-18 17:19 33.701856 -115.934813 248 25779ft 363kts
25-Jun-18 17:20 33.665188 -116.046939 248 25778ft 363kts
25-Jun-18 17:21 33.626975 -116.151310 225 24411ft 339kts
25-Jun-18 17:22 33.568220 -116.209854 217 23030ft 341kts
25-Jun-18 17:23 33.504264 -116.267976 216 21411ft 335kts
25-Jun-18 17:24 33.438347 -116.326321 215 19626ft 329kts
25-Jun-18 17:25 33.366528 -116.389241 215 17662ft 324kts
25-Jun-18 17:26 33.294228 -116.452289 216 15664ft 321kts
25-Jun-18 17:27 33.225030 -116.512412 217 13661ft 297kts
25-Jun-18 17:28 33.160320 -116.568390 218 12024ft 271kts
25-Jun-18 17:29 33.152087 -116.646531 276 10864ft 255kts
25-Jun-18 17:30 33.160318 -116.730644 276 8595ft 258kts
25-Jun-18 17:31 33.168472 -116.811661 276 6793ft 247kts
25-Jun-18 17:32 33.178284 -116.891501 279 5215ft 230kts
25-Jun-18 17:33 33.178988 -116.963162 259 5208ft 213kts
25-Jun-18 17:34 33.167932 -117.033218 259 4567ft 221kts
25-Jun-18 17:35 33.156462 -117.105233 259 3328ft 227kts
25-Jun-18 17:36 33.146469 -117.166488 260 2248ft 147kts
25-Jun-18 17:37 33.139603 -117.209504 260 1464ft 125kts
25-Jun-18 17:38 33.133300 -117.248590 259 770ft 115kts
25-Jun-18 17:39 33.128335 -117.278865 237 303ft 26kts
25-Jun-18 17:40 33.128047 -117.279304 227 303ft 0kts
25-Jun-18 17:41 33.128047 -117.279304 227 303ft 0kts
25-Jun-18 17:42 33.128047 -117.279304 227 303ft 0kts
25-Jun-18 17:43 33.128047 -117.279304 227 303ft 0kts
25-Jun-18 17:44 33.127918 -117.276933 79 303ft 20kts
25-Jun-18 17:45 33.127705 -117.274588 174 303ft 0kts
25-Jun-18 17:46 33.127705 -117.274588 174 303ft 0kts
25-Jun-18 17:47 33.127705 -117.274588 174 303ft 0kts
25-Jun-18 17:48 33.127705 -117.274588 174 303ft 0kts
25-Jun-18 17:49 33.127705 -117.274588 174 303ft 0kts
25-Jun-18 17:50 33.127705 -117.274588 174 303ft 0kts
25-Jun-18 17:51 33.127705 -117.274588 174 303ft 0kts
25-Jun-18 17:52 33.127705 -117.274588 174 303ft 0kts
25-Jun-18 17:53 33.127705 -117.274588 174 303ft 0kts

Navigation Log

Ident Type
Flight plan parsing failed, navigation log unavailable